sensor_id;sensor_type;location;lat;lon;timestamp;temperature;humidity
10306;DHT22;5198;52.382;9.020;2023-10-08T00:01:40;16.40;99.90
10306;DHT22;5198;52.382;9.020;2023-10-08T00:05:46;16.10;99.90
10306;DHT22;5198;52.382;9.020;2023-10-08T00:09:53;16.00;99.90
10306;DHT22;5198;52.382;9.020;2023-10-08T00:13:55;15.80;99.90
10306;DHT22;5198;52.382;9.020;2023-10-08T00:17:58;15.70;99.90
10306;DHT22;5198;52.382;9.020;2023-10-08T00:22:03;15.60;99.90
10306;DHT22;5198;52.382;9.020;2023-10-08T00:26:11;15.40;99.90
10306;DHT22;5198;52.382;9.020;2023-10-08T00:30:20;15.20;99.90
10306;DHT22;5198;52.382;9.020;2023-10-08T00:34:23;15.20;99.90
10306;DHT22;5198;52.382;9.020;2023-10-08T00:38:26;15.10;99.90
10306;DHT22;5198;52.382;9.020;2023-10-08T00:42:35;15.00;99.90
10306;DHT22;5198;52.382;9.020;2023-10-08T00:46:38;15.00;99.90
10306;DHT22;5198;52.382;9.020;2023-10-08T00:50:44;14.90;99.90
10306;DHT22;5198;52.382;9.020;2023-10-08T00:54:49;14.80;99.90
10306;DHT22;5198;52.382;9.020;2023-10-08T00:59:00;14.70;99.90
10306;DHT22;5198;52.382;9.020;2023-10-08T01:03:04;14.60;99.90
10306;DHT22;5198;52.382;9.020;2023-10-08T01:07:17;14.60;99.90
10306;DHT22;5198;52.382;9.020;2023-10-08T01:11:22;14.50;99.90
10306;DHT22;5198;52.382;9.020;2023-10-08T01:15:47;14.40;99.90
10306;DHT22;5198;52.382;9.020;2023-10-08T01:19:53;14.30;99.90
10306;DHT22;5198;52.382;9.020;2023-10-08T01:24:05;14.10;99.90
10306;DHT22;5198;52.382;9.020;2023-10-08T01:28:09;14.00;99.90
10306;DHT22;5198;52.382;9.020;2023-10-08T01:32:16;13.90;99.90
10306;DHT22;5198;52.382;9.020;2023-10-08T01:36:20;13.80;99.90
10306;DHT22;5198;52.382;9.020;2023-10-08T01:40:34;13.80;99.90
10306;DHT22;5198;52.382;9.020;2023-10-08T01:44:37;13.70;99.90
10306;DHT22;5198;52.382;9.020;2023-10-08T01:48:40;13.70;99.90
10306;DHT22;5198;52.382;9.020;2023-10-08T01:52:48;13.60;99.90
10306;DHT22;5198;52.382;9.020;2023-10-08T01:56:52;13.60;99.90
10306;DHT22;5198;52.382;9.020;2023-10-08T02:00:55;13.50;99.90
10306;DHT22;5198;52.382;9.020;2023-10-08T02:05:01;13.50;99.90
10306;DHT22;5198;52.382;9.020;2023-10-08T02:09:05;13.50;99.90
10306;DHT22;5198;52.382;9.020;2023-10-08T02:13:11;13.50;99.90
10306;DHT22;5198;52.382;9.020;2023-10-08T02:17:14;13.50;99.90
10306;DHT22;5198;52.382;9.020;2023-10-08T02:21:33;13.40;99.90
10306;DHT22;5198;52.382;9.020;2023-10-08T02:25:36;13.40;99.90
10306;DHT22;5198;52.382;9.020;2023-10-08T02:29:42;13.40;99.90
10306;DHT22;5198;52.382;9.020;2023-10-08T02:33:45;13.40;99.90
10306;DHT22;5198;52.382;9.020;2023-10-08T02:37:57;13.30;99.90
10306;DHT22;5198;52.382;9.020;2023-10-08T02:42:00;13.30;99.90
10306;DHT22;5198;52.382;9.020;2023-10-08T02:46:05;13.30;99.90
10306;DHT22;5198;52.382;9.020;2023-10-08T02:50:15;13.30;99.90
10306;DHT22;5198;52.382;9.020;2023-10-08T02:54:20;13.30;99.90
10306;DHT22;5198;52.382;9.020;2023-10-08T02:58:24;13.30;99.90
10306;DHT22;5198;52.382;9.020;2023-10-08T03:02:30;13.30;99.90
10306;DHT22;5198;52.382;9.020;2023-10-08T03:06:37;13.20;99.90
10306;DHT22;5198;52.382;9.020;2023-10-08T03:10:40;13.20;99.90
10306;DHT22;5198;52.382;9.020;2023-10-08T03:14:43;13.20;99.90
10306;DHT22;5198;52.382;9.020;2023-10-08T03:19:03;13.20;99.90
10306;DHT22;5198;52.382;9.020;2023-10-08T03:23:08;13.10;99.90
10306;DHT22;5198;52.382;9.020;2023-10-08T03:27:15;13.10;99.90
10306;DHT22;5198;52.382;9.020;2023-10-08T03:31:22;13.20;99.90
10306;DHT22;5198;52.382;9.020;2023-10-08T03:39:59;13.20;99.90
10306;DHT22;5198;52.382;9.020;2023-10-08T03:44:23;13.20;99.90
10306;DHT22;5198;52.382;9.020;2023-10-08T03:48:38;13.10;99.90
10306;DHT22;5198;52.382;9.020;2023-10-08T03:52:41;13.20;99.90
10306;DHT22;5198;52.382;9.020;2023-10-08T03:56:46;13.20;99.90
10306;DHT22;5198;52.382;9.020;2023-10-08T04:00:50;13.20;99.90
10306;DHT22;5198;52.382;9.020;2023-10-08T04:05:05;13.10;99.90
10306;DHT22;5198;52.382;9.020;2023-10-08T04:09:20;13.10;99.90
10306;DHT22;5198;52.382;9.020;2023-10-08T04:13:34;13.10;99.90
10306;DHT22;5198;52.382;9.020;2023-10-08T04:17:45;13.10;99.90
10306;DHT22;5198;52.382;9.020;2023-10-08T04:21:53;13.10;99.90
10306;DHT22;5198;52.382;9.020;2023-10-08T04:25:56;13.00;99.90
10306;DHT22;5198;52.382;9.020;2023-10-08T04:30:08;13.00;99.90
10306;DHT22;5198;52.382;9.020;2023-10-08T04:34:12;13.10;99.90
10306;DHT22;5198;52.382;9.020;2023-10-08T04:38:19;13.10;99.90
10306;DHT22;5198;52.382;9.020;2023-10-08T04:42:23;13.10;99.90
10306;DHT22;5198;52.382;9.020;2023-10-08T04:46:37;13.00;99.90
10306;DHT22;5198;52.382;9.020;2023-10-08T04:50:49;13.00;99.90
10306;DHT22;5198;52.382;9.020;2023-10-08T04:55:00;13.10;99.90
10306;DHT22;5198;52.382;9.020;2023-10-08T04:59:14;13.10;99.90
10306;DHT22;5198;52.382;9.020;2023-10-08T05:03:24;13.10;99.90
10306;DHT22;5198;52.382;9.020;2023-10-08T05:07:34;13.00;99.90
10306;DHT22;5198;52.382;9.020;2023-10-08T05:12:02;13.00;99.90
10306;DHT22;5198;52.382;9.020;2023-10-08T05:16:33;13.00;99.90
10306;DHT22;5198;52.382;9.020;2023-10-08T05:20:46;13.10;99.90
10306;DHT22;5198;52.382;9.020;2023-10-08T05:25:05;13.00;99.90
10306;DHT22;5198;52.382;9.020;2023-10-08T05:29:17;13.00;99.90
10306;DHT22;5198;52.382;9.020;2023-10-08T05:33:38;13.00;99.90
10306;DHT22;5198;52.382;9.020;2023-10-08T05:38:03;13.00;99.90
10306;DHT22;5198;52.382;9.020;2023-10-08T05:42:15;13.00;99.90
10306;DHT22;5198;52.382;9.020;2023-10-08T05:46:21;12.90;99.90
10306;DHT22;5198;52.382;9.020;2023-10-08T05:50:42;13.00;99.90
10306;DHT22;5198;52.382;9.020;2023-10-08T05:54:58;13.00;99.90
10306;DHT22;5198;52.382;9.020;2023-10-08T05:59:15;12.90;99.90
10306;DHT22;5198;52.382;9.020;2023-10-08T06:03:20;12.90;99.90
10306;DHT22;5198;52.382;9.020;2023-10-08T06:07:37;13.00;99.90
10306;DHT22;5198;52.382;9.020;2023-10-08T06:11:59;13.00;99.90
10306;DHT22;5198;52.382;9.020;2023-10-08T06:16:21;13.00;99.90
10306;DHT22;5198;52.382;9.020;2023-10-08T06:20:43;13.00;99.90
10306;DHT22;5198;52.382;9.020;2023-10-08T06:24:46;13.00;99.90
10306;DHT22;5198;52.382;9.020;2023-10-08T06:28:50;13.00;99.90
10306;DHT22;5198;52.382;9.020;2023-10-08T06:33:06;13.00;99.90
10306;DHT22;5198;52.382;9.020;2023-10-08T06:37:09;13.10;99.90
10306;DHT22;5198;52.382;9.020;2023-10-08T06:41:17;13.10;99.90
10306;DHT22;5198;52.382;9.020;2023-10-08T06:45:42;13.10;99.90
10306;DHT22;5198;52.382;9.020;2023-10-08T06:49:45;13.20;99.90
10306;DHT22;5198;52.382;9.020;2023-10-08T06:53:48;13.20;99.90
10306;DHT22;5198;52.382;9.020;2023-10-08T06:57:51;13.30;99.90
10306;DHT22;5198;52.382;9.020;2023-10-08T07:01:55;13.30;99.90
10306;DHT22;5198;52.382;9.020;2023-10-08T07:06:00;13.40;99.90
10306;DHT22;5198;52.382;9.020;2023-10-08T07:10:04;13.60;99.90
10306;DHT22;5198;52.382;9.020;2023-10-08T07:14:13;13.70;99.90
10306;DHT22;5198;52.382;9.020;2023-10-08T07:18:18;13.90;99.90
10306;DHT22;5198;52.382;9.020;2023-10-08T07:22:27;14.20;99.90
10306;DHT22;5198;52.382;9.020;2023-10-08T07:26:31;14.50;99.90
10306;DHT22;5198;52.382;9.020;2023-10-08T07:30:38;14.70;99.90
10306;DHT22;5198;52.382;9.020;2023-10-08T07:34:47;14.90;99.90
10306;DHT22;5198;52.382;9.020;2023-10-08T07:38:59;15.20;99.90
10306;DHT22;5198;52.382;9.020;2023-10-08T07:43:06;15.70;99.90
10306;DHT22;5198;52.382;9.020;2023-10-08T07:47:10;16.00;99.90
10306;DHT22;5198;52.382;9.020;2023-10-08T07:51:16;16.20;99.90
10306;DHT22;5198;52.382;9.020;2023-10-08T07:55:23;16.40;99.90
10306;DHT22;5198;52.382;9.020;2023-10-08T07:59:26;16.50;99.90
10306;DHT22;5198;52.382;9.020;2023-10-08T08:03:29;16.50;99.90
10306;DHT22;5198;52.382;9.020;2023-10-08T08:07:34;16.80;99.90
10306;DHT22;5198;52.382;9.020;2023-10-08T08:11:38;17.20;99.90
10306;DHT22;5198;52.382;9.020;2023-10-08T08:15:42;17.90;99.90
10306;DHT22;5198;52.382;9.020;2023-10-08T08:20:05;18.40;99.90
10306;DHT22;5198;52.382;9.020;2023-10-08T08:24:21;19.00;99.90
10306;DHT22;5198;52.382;9.020;2023-10-08T08:28:38;19.40;99.90
10306;DHT22;5198;52.382;9.020;2023-10-08T08:32:42;19.80;99.90
10306;DHT22;5198;52.382;9.020;2023-10-08T08:36:45;20.10;99.90
10306;DHT22;5198;52.382;9.020;2023-10-08T08:40:52;20.40;99.90
10306;DHT22;5198;52.382;9.020;2023-10-08T08:45:09;20.70;99.90
10306;DHT22;5198;52.382;9.020;2023-10-08T08:49:15;21.10;99.90
10306;DHT22;5198;52.382;9.020;2023-10-08T08:53:19;21.50;99.90
10306;DHT22;5198;52.382;9.020;2023-10-08T08:57:25;21.80;99.90
10306;DHT22;5198;52.382;9.020;2023-10-08T09:01:29;21.90;99.90
10306;DHT22;5198;52.382;9.020;2023-10-08T09:05:34;22.10;99.90
10306;DHT22;5198;52.382;9.020;2023-10-08T09:09:37;22.50;99.90
10306;DHT22;5198;52.382;9.020;2023-10-08T09:13:42;22.80;99.90
10306;DHT22;5198;52.382;9.020;2023-10-08T09:17:46;23.20;99.90
10306;DHT22;5198;52.382;9.020;2023-10-08T09:22:02;23.20;99.90
10306;DHT22;5198;52.382;9.020;2023-10-08T09:26:06;23.20;99.90
10306;DHT22;5198;52.382;9.020;2023-10-08T09:30:12;23.40;99.90
10306;DHT22;5198;52.382;9.020;2023-10-08T09:34:20;23.90;99.90
10306;DHT22;5198;52.382;9.020;2023-10-08T09:38:23;24.30;99.90
10306;DHT22;5198;52.382;9.020;2023-10-08T09:42:27;24.50;99.90
10306;DHT22;5198;52.382;9.020;2023-10-08T09:46:34;24.70;99.90
10306;DHT22;5198;52.382;9.020;2023-10-08T09:50:40;24.70;99.90
10306;DHT22;5198;52.382;9.020;2023-10-08T09:54:44;24.80;99.90
10306;DHT22;5198;52.382;9.020;2023-10-08T10:02:58;25.20;99.90
10306;DHT22;5198;52.382;9.020;2023-10-08T10:07:09;25.70;99.90
10306;DHT22;5198;52.382;9.020;2023-10-08T10:11:15;25.80;99.90
10306;DHT22;5198;52.382;9.020;2023-10-08T10:15:19;25.50;99.90
10306;DHT22;5198;52.382;9.020;2023-10-08T10:19:30;24.90;99.90
10306;DHT22;5198;52.382;9.020;2023-10-08T10:23:37;24.40;99.90
10306;DHT22;5198;52.382;9.020;2023-10-08T10:27:41;24.10;99.90
10306;DHT22;5198;52.382;9.020;2023-10-08T10:31:45;24.20;99.90
10306;DHT22;5198;52.382;9.020;2023-10-08T10:35:51;24.30;99.90
10306;DHT22;5198;52.382;9.020;2023-10-08T10:39:55;24.40;99.90
10306;DHT22;5198;52.382;9.020;2023-10-08T10:44:01;24.40;99.90
10306;DHT22;5198;52.382;9.020;2023-10-08T10:48:09;24.50;99.90
10306;DHT22;5198;52.382;9.020;2023-10-08T10:52:26;24.30;99.90
10306;DHT22;5198;52.382;9.020;2023-10-08T10:56:36;24.00;99.90
10306;DHT22;5198;52.382;9.020;2023-10-08T11:00:45;23.40;99.90
10306;DHT22;5198;52.382;9.020;2023-10-08T11:04:58;23.00;99.90
10306;DHT22;5198;52.382;9.020;2023-10-08T11:09:12;22.50;99.90
10306;DHT22;5198;52.382;9.020;2023-10-08T11:13:18;22.10;99.90
10306;DHT22;5198;52.382;9.020;2023-10-08T11:17:22;22.00;99.90
10306;DHT22;5198;52.382;9.020;2023-10-08T11:21:26;22.00;99.90
10306;DHT22;5198;52.382;9.020;2023-10-08T11:25:37;22.20;99.90
10306;DHT22;5198;52.382;9.020;2023-10-08T11:29:46;22.70;99.90
10306;DHT22;5198;52.382;9.020;2023-10-08T11:33:49;23.00;99.90
10306;DHT22;5198;52.382;9.020;2023-10-08T11:37:58;22.90;99.90
10306;DHT22;5198;52.382;9.020;2023-10-08T11:42:04;22.60;99.90
10306;DHT22;5198;52.382;9.020;2023-10-08T11:46:18;22.20;99.90
10306;DHT22;5198;52.382;9.020;2023-10-08T11:50:24;21.90;99.90
10306;DHT22;5198;52.382;9.020;2023-10-08T11:54:32;21.80;99.90
10306;DHT22;5198;52.382;9.020;2023-10-08T11:58:36;22.20;99.90
10306;DHT22;5198;52.382;9.020;2023-10-08T12:02:39;22.60;99.90
10306;DHT22;5198;52.382;9.020;2023-10-08T12:06:45;23.00;99.90
10306;DHT22;5198;52.382;9.020;2023-10-08T12:10:50;23.10;99.90
10306;DHT22;5198;52.382;9.020;2023-10-08T12:14:58;23.10;99.90
10306;DHT22;5198;52.382;9.020;2023-10-08T12:19:05;23.20;99.90
10306;DHT22;5198;52.382;9.020;2023-10-08T12:23:17;23.50;99.90
10306;DHT22;5198;52.382;9.020;2023-10-08T12:27:27;23.90;99.90
10306;DHT22;5198;52.382;9.020;2023-10-08T12:31:31;24.30;99.90
10306;DHT22;5198;52.382;9.020;2023-10-08T12:35:35;24.20;99.90
10306;DHT22;5198;52.382;9.020;2023-10-08T12:39:44;23.90;99.90
10306;DHT22;5198;52.382;9.020;2023-10-08T12:44:02;23.60;99.90
10306;DHT22;5198;52.382;9.020;2023-10-08T12:48:10;23.30;99.90
10306;DHT22;5198;52.382;9.020;2023-10-08T12:52:16;23.00;99.90
10306;DHT22;5198;52.382;9.020;2023-10-08T12:56:21;22.70;99.90
10306;DHT22;5198;52.382;9.020;2023-10-08T13:00:33;22.40;99.90
10306;DHT22;5198;52.382;9.020;2023-10-08T13:04:40;22.10;99.90
10306;DHT22;5198;52.382;9.020;2023-10-08T13:08:44;22.00;99.90
10306;DHT22;5198;52.382;9.020;2023-10-08T13:12:47;21.80;99.90
10306;DHT22;5198;52.382;9.020;2023-10-08T13:16:52;21.60;99.90
10306;DHT22;5198;52.382;9.020;2023-10-08T13:20:57;21.50;99.90
10306;DHT22;5198;52.382;9.020;2023-10-08T13:25:00;21.30;99.90
10306;DHT22;5198;52.382;9.020;2023-10-08T13:29:06;21.10;99.90
10306;DHT22;5198;52.382;9.020;2023-10-08T13:33:11;20.90;99.90
10306;DHT22;5198;52.382;9.020;2023-10-08T13:37:15;20.80;99.90
10306;DHT22;5198;52.382;9.020;2023-10-08T13:41:18;20.60;99.90
10306;DHT22;5198;52.382;9.020;2023-10-08T13:45:28;20.50;99.90
10306;DHT22;5198;52.382;9.020;2023-10-08T13:49:34;20.40;99.90
10306;DHT22;5198;52.382;9.020;2023-10-08T13:53:38;20.30;99.90
10306;DHT22;5198;52.382;9.020;2023-10-08T13:57:41;20.20;99.90
10306;DHT22;5198;52.382;9.020;2023-10-08T14:01:46;20.10;99.90
10306;DHT22;5198;52.382;9.020;2023-10-08T14:05:53;19.90;99.90
10306;DHT22;5198;52.382;9.020;2023-10-08T14:09:59;19.80;99.90
10306;DHT22;5198;52.382;9.020;2023-10-08T14:14:07;19.70;99.90
10306;DHT22;5198;52.382;9.020;2023-10-08T14:18:13;19.60;99.90
10306;DHT22;5198;52.382;9.020;2023-10-08T14:22:18;19.60;99.90
10306;DHT22;5198;52.382;9.020;2023-10-08T14:26:44;19.80;99.90
10306;DHT22;5198;52.382;9.020;2023-10-08T14:30:53;20.10;99.90
10306;DHT22;5198;52.382;9.020;2023-10-08T14:34:58;20.30;99.90
10306;DHT22;5198;52.382;9.020;2023-10-08T14:39:28;20.50;99.90
10306;DHT22;5198;52.382;9.020;2023-10-08T14:43:49;20.60;99.90
10306;DHT22;5198;52.382;9.020;2023-10-08T14:47:53;20.90;99.90
10306;DHT22;5198;52.382;9.020;2023-10-08T14:51:57;21.10;99.90
10306;DHT22;5198;52.382;9.020;2023-10-08T14:56:00;21.20;99.90
10306;DHT22;5198;52.382;9.020;2023-10-08T15:00:07;21.30;99.90
10306;DHT22;5198;52.382;9.020;2023-10-08T15:04:11;21.30;99.90
10306;DHT22;5198;52.382;9.020;2023-10-08T15:08:14;21.20;99.90
10306;DHT22;5198;52.382;9.020;2023-10-08T15:12:22;21.10;99.90
10306;DHT22;5198;52.382;9.020;2023-10-08T15:16:28;21.00;99.90
10306;DHT22;5198;52.382;9.020;2023-10-08T15:20:32;20.80;99.90
10306;DHT22;5198;52.382;9.020;2023-10-08T15:24:35;20.50;99.90
10306;DHT22;5198;52.382;9.020;2023-10-08T15:28:39;20.30;99.90
10306;DHT22;5198;52.382;9.020;2023-10-08T15:32:43;20.10;99.90
10306;DHT22;5198;52.382;9.020;2023-10-08T15:36:47;20.00;99.90
10306;DHT22;5198;52.382;9.020;2023-10-08T15:40:50;20.00;99.90
10306;DHT22;5198;52.382;9.020;2023-10-08T15:44:53;19.90;99.90
10306;DHT22;5198;52.382;9.020;2023-10-08T15:48:57;19.90;99.90
10306;DHT22;5198;52.382;9.020;2023-10-08T15:53:00;19.70;99.90
10306;DHT22;5198;52.382;9.020;2023-10-08T15:57:04;19.60;99.90
10306;DHT22;5198;52.382;9.020;2023-10-08T16:01:07;19.40;99.90
10306;DHT22;5198;52.382;9.020;2023-10-08T16:05:11;19.30;99.90
10306;DHT22;5198;52.382;9.020;2023-10-08T16:09:16;19.10;99.90
10306;DHT22;5198;52.382;9.020;2023-10-08T16:13:23;18.90;99.90
10306;DHT22;5198;52.382;9.020;2023-10-08T16:17:26;18.70;99.90
10306;DHT22;5198;52.382;9.020;2023-10-08T16:21:34;18.60;99.90
10306;DHT22;5198;52.382;9.020;2023-10-08T16:25:37;18.40;99.90
10306;DHT22;5198;52.382;9.020;2023-10-08T16:29:40;18.30;99.90
10306;DHT22;5198;52.382;9.020;2023-10-08T16:33:43;18.20;99.90
10306;DHT22;5198;52.382;9.020;2023-10-08T16:37:47;18.10;99.90
10306;DHT22;5198;52.382;9.020;2023-10-08T16:41:50;18.00;99.90
10306;DHT22;5198;52.382;9.020;2023-10-08T16:45:54;17.80;99.90
10306;DHT22;5198;52.382;9.020;2023-10-08T16:50:03;17.70;99.90
10306;DHT22;5198;52.382;9.020;2023-10-08T16:54:08;17.60;99.90
10306;DHT22;5198;52.382;9.020;2023-10-08T17:02:23;17.40;99.90
10306;DHT22;5198;52.382;9.020;2023-10-08T17:06:26;17.30;99.90
10306;DHT22;5198;52.382;9.020;2023-10-08T17:10:45;17.20;99.90
10306;DHT22;5198;52.382;9.020;2023-10-08T17:14:48;17.20;99.90
10306;DHT22;5198;52.382;9.020;2023-10-08T17:18:52;17.10;99.90
10306;DHT22;5198;52.382;9.020;2023-10-08T17:23:03;17.00;99.90
10306;DHT22;5198;52.382;9.020;2023-10-08T17:27:09;16.90;99.90
10306;DHT22;5198;52.382;9.020;2023-10-08T17:31:16;16.80;99.90
10306;DHT22;5198;52.382;9.020;2023-10-08T17:35:31;16.70;99.90
10306;DHT22;5198;52.382;9.020;2023-10-08T17:39:34;16.70;99.90
10306;DHT22;5198;52.382;9.020;2023-10-08T17:43:38;16.60;99.90
10306;DHT22;5198;52.382;9.020;2023-10-08T17:47:42;16.40;99.90
10306;DHT22;5198;52.382;9.020;2023-10-08T17:51:47;16.40;99.90
10306;DHT22;5198;52.382;9.020;2023-10-08T17:55:50;16.30;99.90
10306;DHT22;5198;52.382;9.020;2023-10-08T17:59:54;16.20;99.90
10306;DHT22;5198;52.382;9.020;2023-10-08T18:08:25;16.10;99.90
10306;DHT22;5198;52.382;9.020;2023-10-08T18:12:28;16.10;99.90
10306;DHT22;5198;52.382;9.020;2023-10-08T18:21:02;16.00;99.90
10306;DHT22;5198;52.382;9.020;2023-10-08T18:25:07;16.00;99.90
10306;DHT22;5198;52.382;9.020;2023-10-08T18:29:14;16.00;99.90
10306;DHT22;5198;52.382;9.020;2023-10-08T18:33:17;15.90;99.90
10306;DHT22;5198;52.382;9.020;2023-10-08T18:37:22;15.90;99.90
10306;DHT22;5198;52.382;9.020;2023-10-08T18:41:25;15.90;99.90
10306;DHT22;5198;52.382;9.020;2023-10-08T18:45:28;15.90;99.90
10306;DHT22;5198;52.382;9.020;2023-10-08T18:49:31;15.90;99.90
10306;DHT22;5198;52.382;9.020;2023-10-08T18:53:35;15.90;99.90
10306;DHT22;5198;52.382;9.020;2023-10-08T18:57:38;15.90;99.90
10306;DHT22;5198;52.382;9.020;2023-10-08T19:01:43;15.80;99.90
10306;DHT22;5198;52.382;9.020;2023-10-08T19:05:46;15.80;99.90
10306;DHT22;5198;52.382;9.020;2023-10-08T19:10:06;15.80;99.90
10306;DHT22;5198;52.382;9.020;2023-10-08T19:14:11;15.70;99.90
10306;DHT22;5198;52.382;9.020;2023-10-08T19:18:16;15.70;99.90
10306;DHT22;5198;52.382;9.020;2023-10-08T19:22:19;15.70;99.90
10306;DHT22;5198;52.382;9.020;2023-10-08T19:26:26;15.70;99.90
10306;DHT22;5198;52.382;9.020;2023-10-08T19:30:30;15.70;99.90
10306;DHT22;5198;52.382;9.020;2023-10-08T19:34:34;15.60;99.90
10306;DHT22;5198;52.382;9.020;2023-10-08T19:38:38;15.60;99.90
10306;DHT22;5198;52.382;9.020;2023-10-08T19:47:19;15.60;99.90
10306;DHT22;5198;52.382;9.020;2023-10-08T19:51:22;15.60;99.90
10306;DHT22;5198;52.382;9.020;2023-10-08T20:00:01;15.50;99.90
10306;DHT22;5198;52.382;9.020;2023-10-08T20:04:08;15.40;99.90
10306;DHT22;5198;52.382;9.020;2023-10-08T20:08:11;15.40;99.90
10306;DHT22;5198;52.382;9.020;2023-10-08T20:12:14;15.30;99.90
10306;DHT22;5198;52.382;9.020;2023-10-08T20:16:17;15.30;99.90
10306;DHT22;5198;52.382;9.020;2023-10-08T20:20:22;15.30;99.90
10306;DHT22;5198;52.382;9.020;2023-10-08T20:24:31;15.20;99.90
10306;DHT22;5198;52.382;9.020;2023-10-08T20:28:34;15.10;99.90
10306;DHT22;5198;52.382;9.020;2023-10-08T20:32:37;15.10;99.90
10306;DHT22;5198;52.382;9.020;2023-10-08T20:36:41;15.10;99.90
10306;DHT22;5198;52.382;9.020;2023-10-08T20:40:45;15.00;99.90
10306;DHT22;5198;52.382;9.020;2023-10-08T20:44:48;14.90;99.90
10306;DHT22;5198;52.382;9.020;2023-10-08T20:48:51;14.80;99.90
10306;DHT22;5198;52.382;9.020;2023-10-08T20:53:09;14.80;99.90
10306;DHT22;5198;52.382;9.020;2023-10-08T20:57:13;14.80;99.90
10306;DHT22;5198;52.382;9.020;2023-10-08T21:01:16;14.70;99.90
10306;DHT22;5198;52.382;9.020;2023-10-08T21:05:19;14.70;99.90
10306;DHT22;5198;52.382;9.020;2023-10-08T21:09:24;14.60;99.90
10306;DHT22;5198;52.382;9.020;2023-10-08T21:13:27;14.60;99.90
10306;DHT22;5198;52.382;9.020;2023-10-08T21:17:32;14.60;99.90
10306;DHT22;5198;52.382;9.020;2023-10-08T21:21:48;14.60;99.90
10306;DHT22;5198;52.382;9.020;2023-10-08T21:25:52;14.60;99.90
10306;DHT22;5198;52.382;9.020;2023-10-08T21:29:55;14.60;99.90
10306;DHT22;5198;52.382;9.020;2023-10-08T21:33:58;14.50;99.90
10306;DHT22;5198;52.382;9.020;2023-10-08T21:38:01;14.50;99.90
10306;DHT22;5198;52.382;9.020;2023-10-08T21:42:06;14.50;99.90
10306;DHT22;5198;52.382;9.020;2023-10-08T21:46:09;14.50;99.90
10306;DHT22;5198;52.382;9.020;2023-10-08T21:54:44;14.40;99.90
10306;DHT22;5198;52.382;9.020;2023-10-08T21:58:49;14.40;99.90
10306;DHT22;5198;52.382;9.020;2023-10-08T22:07:56;14.40;99.90
10306;DHT22;5198;52.382;9.020;2023-10-08T22:11:59;14.30;99.90
10306;DHT22;5198;52.382;9.020;2023-10-08T22:16:06;14.30;99.90
10306;DHT22;5198;52.382;9.020;2023-10-08T22:20:19;14.30;99.90
10306;DHT22;5198;52.382;9.020;2023-10-08T22:24:36;14.20;99.90
10306;DHT22;5198;52.382;9.020;2023-10-08T22:28:41;14.20;99.90
10306;DHT22;5198;52.382;9.020;2023-10-08T22:32:47;14.10;99.90
10306;DHT22;5198;52.382;9.020;2023-10-08T22:36:53;14.10;99.90
10306;DHT22;5198;52.382;9.020;2023-10-08T22:41:03;14.10;99.90
10306;DHT22;5198;52.382;9.020;2023-10-08T22:45:26;14.00;99.90
10306;DHT22;5198;52.382;9.020;2023-10-08T22:49:32;14.00;99.90
10306;DHT22;5198;52.382;9.020;2023-10-08T22:53:35;14.00;99.90
10306;DHT22;5198;52.382;9.020;2023-10-08T22:57:38;14.00;99.90
10306;DHT22;5198;52.382;9.020;2023-10-08T23:01:42;14.00;99.90
10306;DHT22;5198;52.382;9.020;2023-10-08T23:05:47;14.10;99.90
10306;DHT22;5198;52.382;9.020;2023-10-08T23:09:53;14.10;99.90
10306;DHT22;5198;52.382;9.020;2023-10-08T23:13:57;14.10;99.90
10306;DHT22;5198;52.382;9.020;2023-10-08T23:18:04;14.10;99.90
10306;DHT22;5198;52.382;9.020;2023-10-08T23:22:11;14.10;99.90
10306;DHT22;5198;52.382;9.020;2023-10-08T23:26:14;14.20;99.90
10306;DHT22;5198;52.382;9.020;2023-10-08T23:30:18;14.20;99.90
10306;DHT22;5198;52.382;9.020;2023-10-08T23:34:21;14.20;99.90
10306;DHT22;5198;52.382;9.020;2023-10-08T23:38:28;14.20;99.90
10306;DHT22;5198;52.382;9.020;2023-10-08T23:42:34;14.20;99.90
10306;DHT22;5198;52.382;9.020;2023-10-08T23:46:46;14.30;99.90
10306;DHT22;5198;52.382;9.020;2023-10-08T23:51:03;14.30;99.90
10306;DHT22;5198;52.382;9.020;2023-10-08T23:55:11;14.30;99.90
10306;DHT22;5198;52.382;9.020;2023-10-08T23:59:15;14.30;99.90
